METAR

Letisková meteorologická správa METAR

Meteorologické informácie z ďalších profesionálnych meteorologických staníc SHMÚ zobrazené v tvare zodpovedajúcom pravidlám kódovania správ METAR sú uvedené v položke „METSYN

Informácie o správe METAR

18.11.2018 - 08:00 UTC

METAR LZIB 180800Z 02003KT CAVOK 02/M02 Q1027 NOSIG=
METAR LZKZ 180800Z VRB01KT 9999 BKN048 01/M03 Q1027 NOSIG=
METAR LZPP 180800Z 01006KT CAVOK M00/M03 Q1027=
METAR LZSL 180800Z VRB01KT CAVOK M03/M04 Q1027=
METAR LZTT 180800Z VRB01KT 9999 FEW073 M01/M04 Q1025 NOSIG=
METAR LZZI 180800Z 10002KT CAVOK M01/M04 Q1027=

18.11.2018 - 07:30 UTC

METAR LZIB 180730Z VRB01KT CAVOK 01/M03 Q1028 NOSIG=
METAR LZKZ 180730Z 07002KT CAVOK M01/M04 Q1027 NOSIG=
METAR LZPP 180730Z 02003KT CAVOK M02/M04 Q1028=
METAR LZSL 180730Z VRB01KT CAVOK M03/M04 Q1027=
METAR LZTT 180730Z 06002KT 9999 SCT070 M01/M04 Q1025 NOSIG=
METAR LZZI 180730Z 12004KT CAVOK M02/M04 Q1027=

18.11.2018 - 08:00 UTC

METAR LZMC 180800Z 00000KT 4000 BR NSC M05/M07 Q1028=
METAR LZPW 180800Z 00000KT CAVOK 01/M04 Q1027=

skok na menu ↑


skok na začiatok stránky ↑